Time;durP1;ratioP1;P1;durP2;ratioP2;P2;SDS_P1;SDS_P2;PMS_P1;PMS_P2;Temp;Humidity;BMP_temperature;BMP_pressure;BME280_temperature;BME280_humidity;BME280_pressure;Samples;Min_cycle;Max_cycle;Signal;HPM_P1;HPM_P2
2022/09/20 00:00:33;;;;;;;;;;;;;;;9.40;100.00;99757.94;3055156;19;19923;-57
2022/09/20 00:01:35;;;;;;;;;;;;;;;9.38;100.00;99749.19;3055586;19;19938;-58
2022/09/20 00:02:40;;;;;;;;;;;;;;;9.35;100.00;99749.41;3056603;19;19942;-59
2022/09/20 00:03:43;;;;;;;;;;;;;;;9.35;100.00;99749.41;3056441;19;20612;-59
2022/09/20 00:04:49;;;;;;;;;;;;;;;9.31;100.00;99746.09;3056605;19;19921;-57
2022/09/20 00:05:51;;;;;;;;;;;;;;;9.29;100.00;99744.50;3055634;19;19927;-58
2022/09/20 00:06:55;;;;;;;;;;;;;;;9.29;100.00;99750.69;3056500;19;19931;-59
2022/09/20 00:07:57;;;;;;;;;;;;;;;9.28;100.00;99748.13;3056530;19;19915;-57
2022/09/20 00:09:02;;;;;;;;;;;;;;;9.25;100.00;99745.66;3056415;19;19922;-57
2022/09/20 00:10:04;;;;;;;;;;;;;;;9.25;100.00;99748.31;3056402;19;19936;-57
2022/09/20 00:11:09;;;;;;;;;;;;;;;9.22;100.00;99751.19;3056272;19;20258;-58
2022/09/20 00:12:11;;;;;;;;;;;;;;;9.19;100.00;99743.41;3056310;19;19935;-57
2022/09/20 00:13:16;;;;;;;;;;;;;;;9.17;100.00;99748.00;3056574;19;20254;-58
2022/09/20 00:14:17;;;;;;;;;;;;;;;9.15;100.00;99752.56;3056146;19;19989;-57
2022/09/20 00:15:22;;;;;;;;;;;;;;;9.15;100.00;99752.56;3056238;19;19919;-57
2022/09/20 00:16:28;;;;;;;;;;;;;;;9.12;100.00;99752.75;3056573;19;19918;-57
2022/09/20 00:17:32;;;;;;;;;;;;;;;9.08;100.00;99752.09;3056724;19;20327;-59
2022/09/20 00:18:34;;;;;;;;;;;;;;;9.06;100.00;99748.69;3056061;19;20001;-57
2022/09/20 00:19:39;;;;;;;;;;;;;;;9.03;100.00;99755.09;3055800;19;19947;-57
2022/09/20 00:20:47;;;;;;;;;;;;;;;9.01;100.00;99756.16;3055080;19;19982;-57
2022/09/20 00:21:51;;;;;;;;;;;;;;;8.99;100.00;99753.59;3055624;19;20323;-58
2022/09/20 00:22:53;;;;;;;;;;;;;;;8.96;100.00;99752.94;3056158;19;19922;-58
2022/09/20 00:23:58;;;;;;;;;;;;;;;8.94;100.00;99760.16;3056276;19;19918;-57
2022/09/20 00:25:00;;;;;;;;;;;;;;;8.92;100.00;99752.31;3055929;19;19936;-56
2022/09/20 00:26:05;;;;;;;;;;;;;;;8.89;100.00;99752.50;3055779;19;19948;-57
2022/09/20 00:27:07;;;;;;;;;;;;;;;8.87;100.00;99754.41;3056061;19;19988;-56
2022/09/20 00:28:12;;;;;;;;;;;;;;;8.85;100.00;99751.00;3056369;19;19934;-57
2022/09/20 00:29:13;;;;;;;;;;;;;;;8.80;100.00;99755.78;3055964;19;19948;-57
2022/09/20 00:30:18;;;;;;;;;;;;;;;8.78;100.00;99749.69;3056356;19;20007;-56
2022/09/20 00:31:20;;;;;;;;;;;;;;;8.77;100.00;99761.28;3055888;19;20322;-57
2022/09/20 00:32:24;;;;;;;;;;;;;;;8.76;100.00;99761.38;3056185;19;19914;-58
2022/09/20 00:35:06;;;;;;;;;;;;;;;8.72;100.00;99760.72;3056062;19;19931;-59
2022/09/20 00:36:08;;;;;;;;;;;;;;;8.67;100.00;99760.19;3056000;19;19940;-58
2022/09/20 00:37:10;;;;;;;;;;;;;;;8.65;100.00;99760.28;3055972;19;19945;-58
2022/09/20 00:38:15;;;;;;;;;;;;;;;8.64;100.00;99761.25;3056089;19;19911;-56
2022/09/20 00:39:17;;;;;;;;;;;;;;;8.61;100.00;99757.91;3055553;19;19943;-57
2022/09/20 00:40:22;;;;;;;;;;;;;;;8.61;100.00;99763.22;3056156;19;19964;-58
2022/09/20 00:41:24;;;;;;;;;;;;;;;8.59;100.00;99751.84;3055039;19;19923;-57
2022/09/20 00:42:29;;;;;;;;;;;;;;;8.58;100.00;99763.41;3055252;19;19937;-56
2022/09/20 00:43:43;;;;;;;;;;;;;;;8.58;100.00;99760.75;3054703;19;19919;-58
2022/09/20 00:44:52;;;;;;;;;;;;;;;8.59;100.00;99762.47;3055499;19;19926;-57
2022/09/20 00:45:56;;;;;;;;;;;;;;;8.58;100.00;99752.78;3055529;19;19939;-56
2022/09/20 00:46:58;;;;;;;;;;;;;;;8.58;100.00;99755.44;3055281;19;19946;-57
2022/09/20 00:48:13;;;;;;;;;;;;;;;8.58;100.00;99752.78;3054871;19;20342;-56
2022/09/20 00:49:17;;;;;;;;;;;;;;;8.50;100.00;99755.97;3055343;19;19980;-59
2022/09/20 00:50:21;;;;;;;;;;;;;;;8.56;100.00;99762.69;3055702;19;20546;-59
2022/09/20 00:51:27;;;;;;;;;;;;;;;8.55;100.00;99761.00;3056021;19;19926;-58
2022/09/20 00:52:32;;;;;;;;;;;;;;;8.53;100.00;99757.56;3055998;19;19982;-58
2022/09/20 00:53:38;;;;;;;;;;;;;;;8.53;100.00;99760.22;3055260;19;20344;-57
2022/09/20 00:54:43;;;;;;;;;;;;;;;8.51;100.00;99767.44;3055625;19;19934;-57
2022/09/20 00:56:00;;;;;;;;;;;;;;;8.50;100.00;99760.41;3055662;19;19943;-57
2022/09/20 00:57:02;;;;;;;;;;;;;;;8.48;100.00;99755.19;3056121;19;19940;-58
2022/09/20 00:58:06;;;;;;;;;;;;;;;8.47;100.00;99750.81;3054853;19;19919;-58
2022/09/20 00:59:10;;;;;;;;;;;;;;;8.45;100.00;99752.72;3055112;19;19927;-56
2022/09/20 01:00:15;;;;;;;;;;;;;;;8.43;100.00;99744.03;3055020;19;19915;-57
2022/09/20 01:01:17;;;;;;;;;;;;;;;8.42;100.00;99747.63;3056101;19;19923;-57
2022/09/20 01:02:24;;;;;;;;;;;;;;;8.40;100.00;99754.00;3057896;19;20640;-58
2022/09/20 01:03:27;;;;;;;;;;;;;;;8.37;100.00;99746.22;3058362;19;19930;-56
2022/09/20 01:04:33;;;;;;;;;;;;;;;8.36;100.00;99752.47;3058007;19;19919;-57
2022/09/20 01:05:34;;;;;;;;;;;;;;;8.33;100.00;99753.53;3058247;19;19935;-58
2022/09/20 01:06:39;;;;;;;;;;;;;;;8.31;100.00;99750.09;3057096;19;19935;-57
2022/09/20 01:07:41;;;;;;;;;;;;;;;8.30;100.00;99749.25;3059042;19;20318;-56
2022/09/20 01:08:48;;;;;;;;;;;;;;;8.29;100.00;99758.16;3058102;19;19934;-58
2022/09/20 01:09:50;;;;;;;;;;;;;;;8.27;100.00;99754.75;3058280;19;19950;-57
2022/09/20 01:10:54;;;;;;;;;;;;;;;8.26;100.00;99747.72;3057903;19;20223;-57
2022/09/20 01:11:56;;;;;;;;;;;;;;;8.27;100.00;99748.56;3059096;19;19931;-59
2022/09/20 01:13:01;;;;;;;;;;;;;;;8.26;100.00;99750.38;3058817;19;20314;-56
2022/09/20 01:14:03;;;;;;;;;;;;;;;8.24;100.00;99754.94;3059132;19;19986;-57
2022/09/20 01:15:08;;;;;;;;;;;;;;;8.24;100.00;99751.41;3058957;19;19926;-57
2022/09/20 01:16:10;;;;;;;;;;;;;;;8.24;100.00;99751.41;3058039;19;19974;-57
2022/09/20 01:17:14;;;;;;;;;;;;;;;8.25;100.00;99751.31;3056434;19;19946;-57
2022/09/20 01:18:17;;;;;;;;;;;;;;;8.23;100.00;99747.91;3059803;19;21544;-58
2022/09/20 01:19:35;;;;;;;;;;;;;;;8.22;100.00;99746.19;3058164;19;19935;-59
2022/09/20 01:20:40;;;;;;;;;;;;;;;8.26;100.00;99752.19;3057829;19;19942;-57
2022/09/20 01:21:45;;;;;;;;;;;;;;;8.26;100.00;99753.03;3057959;19;20353;-58
2022/09/20 01:23:08;;;;;;;;;;;;;;;8.28;100.00;99755.59;3057291;19;19930;-56
2022/09/20 01:24:25;;;;;;;;;;;;;;;8.24;100.00;99749.63;3058184;19;20244;-57
2022/09/20 01:25:48;;;;;;;;;;;;;;;8.24;100.00;99757.59;3058337;19;20254;-56
2022/09/20 01:26:56;;;;;;;;;;;;;;;8.23;100.00;99750.56;3058123;19;19986;-56
2022/09/20 01:28:01;;;;;;;;;;;;;;;8.24;100.00;99754.94;3058148;19;19979;-57
2022/09/20 01:29:08;;;;;;;;;;;;;;;8.24;100.00;99754.94;3057643;19;20282;-56
2022/09/20 01:30:13;;;;;;;;;;;;;;;8.25;100.00;99751.31;3057852;19;19974;-59
2022/09/20 01:31:25;;;;;;;;;;;;;;;8.28;100.00;99756.47;3057489;19;19918;-57
2022/09/20 01:32:32;;;;;;;;;;;;;;;8.29;100.00;99752.84;3057593;19;19925;-57
2022/09/20 01:33:42;;;;;;;;;;;;;;;8.33;100.00;99755.34;3057751;19;20033;-58
2022/09/20 01:34:45;;;;;;;;;;;;;;;8.34;100.00;99754.38;3058193;19;19944;-57
2022/09/20 01:35:51;;;;;;;;;;;;;;;8.36;100.00;99752.47;3057654;19;20000;-57
2022/09/20 01:36:53;;;;;;;;;;;;;;;8.37;100.00;99749.72;3057988;19;19930;-57
2022/09/20 01:37:58;;;;;;;;;;;;;;;8.38;100.00;99750.56;3057494;19;19923;-58
2022/09/20 01:39:04;;;;;;;;;;;;;;;8.40;100.00;99754.00;3058047;19;19990;-58
2022/09/20 01:40:16;;;;;;;;;;;;;;;8.41;100.00;99751.25;3056192;19;20001;-56
2022/09/20 01:41:20;;;;;;;;;;;;;;;8.46;100.00;99758.91;3057747;19;19951;-57
2022/09/20 01:42:27;;;;;;;;;;;;;;;8.48;100.00;99757.00;3057608;19;19942;-58
2022/09/20 01:43:30;;;;;;;;;;;;;;;8.52;100.00;99758.53;3057569;19;20377;-58
2022/09/20 01:44:34;;;;;;;;;;;;;;;8.56;100.00;99749.41;3057499;19;19926;-58
2022/09/20 01:45:36;;;;;;;;;;;;;;;8.61;100.00;99757.91;3057654;19;19919;-58
2022/09/20 01:46:40;;;;;;;;;;;;;;;8.63;100.00;99762.19;3057142;19;19932;-59
2022/09/20 01:47:47;;;;;;;;;;;;;;;8.67;100.00;99762.84;3057640;19;19927;-58
2022/09/20 01:48:52;;;;;;;;;;;;;;;8.73;100.00;99756.25;3057702;19;19998;-56
2022/09/20 01:50:02;;;;;;;;;;;;;;;8.75;100.00;99757.03;3057582;19;20361;-56
2022/09/20 01:51:12;;;;;;;;;;;;;;;8.81;100.00;99753.97;3057424;19;19946;-57
2022/09/20 01:52:21;;;;;;;;;;;;;;;8.84;100.00;99743.09;3057567;19;19922;-58
2022/09/20 01:53:44;;;;;;;;;;;;;;;8.87;100.00;99754.41;3058563;19;19930;-57
2022/09/20 01:54:58;;;;;;;;;;;;;;;8.91;100.00;99761.25;3058134;19;19918;-57
2022/09/20 01:56:03;;;;;;;;;;;;;;;8.95;100.00;99752.06;3058368;19;19923;-57
2022/09/20 01:57:22;;;;;;;;;;;;;;;9.01;100.00;99756.16;3057859;19;20375;-57
2022/09/20 01:58:36;;;;;;;;;;;;;;;9.06;100.00;99758.50;3057349;19;19926;-58
2022/09/20 01:59:56;;;;;;;;;;;;;;;9.10;100.00;99765.31;3057481;19;19919;-56
2022/09/20 02:01:04;;;;;;;;;;;;;;;9.16;100.00;99764.91;3055995;19;19978;-56
2022/09/20 02:02:16;;;;;;;;;;;;;;;9.19;100.00;99762.88;3057442;19;19990;-58
2022/09/20 02:03:24;;;;;;;;;;;;;;;9.24;100.00;99767.91;3057017;19;19918;-59
2022/09/20 02:04:34;;;;;;;;;;;;;;;9.28;100.00;99764.09;3057177;19;19919;-58
2022/09/20 02:05:52;;;;;;;;;;;;;;;9.32;100.00;99766.44;3057217;19;19939;-57
2022/09/20 02:07:04;;;;;;;;;;;;;;;9.35;100.00;99771.56;3056883;19;19992;-58
2022/09/20 02:08:12;;;;;;;;;;;;;;;9.38;100.00;99775.81;3057281;19;19931;-56
2022/09/20 02:09:22;;;;;;;;;;;;;;;9.42;100.00;99771.16;3057118;19;20379;-56
2022/09/20 02:10:33;;;;;;;;;;;;;;;9.46;100.00;99784.13;3058201;19;19918;-56
2022/09/20 02:11:41;;;;;;;;;;;;;;;9.49;100.00;99777.75;3057975;19;20314;-56
2022/09/20 02:12:51;;;;;;;;;;;;;;;9.51;100.00;99771.38;3056990;19;19954;-59
2022/09/20 02:14:13;;;;;;;;;;;;;;;9.53;100.00;99774.78;3058161;19;20567;-58
2022/09/20 02:15:21;;;;;;;;;;;;;;;9.56;100.00;99779.03;3057775;19;19999;-57
2022/09/20 02:16:35;;;;;;;;;;;;;;;9.58;100.00;99783.28;3057226;19;19919;-57
2022/09/20 02:17:57;;;;;;;;;;;;;;;9.59;100.00;99779.66;3057805;19;19946;-57
2022/09/20 02:19:17;;;;;;;;;;;;;;;9.61;100.00;99782.22;3057180;19;20473;-57
2022/09/20 02:20:21;;;;;;;;;;;;;;;9.62;100.00;99778.63;3057480;19;19935;-59
2022/09/20 02:21:29;;;;;;;;;;;;;;;9.62;100.00;99784.78;3057866;19;20007;-57
2022/09/20 02:22:54;;;;;;;;;;;;;;;9.65;100.00;99783.75;3057951;19;19974;-57
2022/09/20 02:24:14;;;;;;;;;;;;;;;9.69;100.00;99779.88;3055894;19;19924;-57
2022/09/20 02:25:30;;;;;;;;;;;;;;;9.73;100.00;99782.25;3058015;19;19935;-59
2022/09/20 02:26:35;;;;;;;;;;;;;;;9.73;100.00;99782.25;3057090;19;19931;-58
2022/09/20 02:27:42;;;;;;;;;;;;;;;9.76;100.00;99781.19;3056373;19;19919;-58
2022/09/20 02:29:05;;;;;;;;;;;;;;;9.80;100.00;99792.47;3056948;19;20460;-57
2022/09/20 02:30:26;;;;;;;;;;;;;;;9.81;100.00;99789.69;3057049;19;19942;-57
2022/09/20 02:31:33;;;;;;;;;;;;;;;9.82;100.00;99799.38;3057895;19;19937;-58
2022/09/20 02:32:56;;;;;;;;;;;;;;;9.82;100.00;99796.72;3057815;19;19936;-57
2022/09/20 02:34:17;;;;;;;;;;;;;;;9.85;100.00;99801.00;3057795;19;20858;-59
2022/09/20 02:35:41;;;;;;;;;;;;;;;9.86;100.00;99802.72;3057897;19;19914;-58
2022/09/20 02:36:52;;;;;;;;;;;;;;;9.87;100.00;99805.28;3057736;19;19914;-58
2022/09/20 02:37:59;;;;;;;;;;;;;;;9.86;100.00;99800.03;3057599;19;19974;-58
2022/09/20 02:39:06;;;;;;;;;;;;;;;9.87;100.00;99810.59;3057726;19;19984;-58
2022/09/20 02:40:35;;;;;;;;;;;;;;;9.86;100.00;99816.88;3056468;19;20016;-58
2022/09/20 02:41:57;;;;;;;;;;;;;;;9.83;100.00;99810.91;3056668;19;19994;-58
2022/09/20 02:43:02;;;;;;;;;;;;;;;9.82;100.00;99819.84;3056619;19;20036;-58
2022/09/20 02:44:39;;;;;;;;;;;;;;;9.81;100.00;99819.00;3056698;19;19946;-58
2022/09/20 02:45:44;;;;;;;;;;;;;;;9.80;100.00;99821.78;3055794;19;19926;-58
2022/09/20 02:47:07;;;;;;;;;;;;;;;9.78;100.00;99823.72;3057052;19;20000;-56
2022/09/20 02:48:09;;;;;;;;;;;;;;;9.79;100.00;99825.38;3055922;19;19930;-57
2022/09/20 02:49:23;;;;;;;;;;;;;;;9.77;100.00;99824.66;3056946;19;19982;-59
2022/09/20 02:50:46;;;;;;;;;;;;;;;9.75;100.00;99825.63;3056342;19;19946;-58
2022/09/20 02:51:50;;;;;;;;;;;;;;;9.76;100.00;99829.16;3056985;19;19923;-56
2022/09/20 02:52:57;;;;;;;;;;;;;;;9.77;100.00;99840.66;3056584;19;19922;-59
2022/09/20 02:54:12;;;;;;;;;;;;;;;9.73;100.00;99834.69;3056762;19;19923;-58
2022/09/20 02:55:22;;;;;;;;;;;;;;;9.75;100.00;99832.75;3056396;19;20349;-57
2022/09/20 02:56:28;;;;;;;;;;;;;;;9.76;100.00;99839.81;3056810;19;19929;-57
2022/09/20 02:57:42;;;;;;;;;;;;;;;9.74;100.00;99839.06;3056177;19;19990;-59
2022/09/20 02:58:53;;;;;;;;;;;;;;;9.77;100.00;99840.66;3056600;19;19926;-58
2022/09/20 03:00:18;;;;;;;;;;;;;;;9.80;100.00;99848.41;3056897;19;19923;-58
2022/09/20 03:01:23;;;;;;;;;;;;;;;9.80;100.00;99843.94;3056999;19;19915;-59
2022/09/20 03:02:50;;;;;;;;;;;;;;;9.81;100.00;99847.47;3057645;19;19931;-58
2022/09/20 03:04:13;;;;;;;;;;;;;;;9.83;100.00;99848.22;3057173;19;19970;-58
2022/09/20 03:05:33;;;;;;;;;;;;;;;9.85;100.00;99854.28;3057228;19;19937;-58
2022/09/20 03:06:56;;;;;;;;;;;;;;;9.85;100.00;99847.16;3057564;19;20256;-58
2022/09/20 03:08:04;;;;;;;;;;;;;;;9.85;100.00;99851.63;3056864;19;19926;-59
2022/09/20 03:09:16;;;;;;;;;;;;;;;9.85;100.00;99848.97;3057202;19;19923;-58
2022/09/20 03:10:23;;;;;;;;;;;;;;;9.85;100.00;99854.28;3056106;19;20383;-56
2022/09/20 03:11:33;;;;;;;;;;;;;;;9.85;100.00;99854.28;3056185;19;19935;-57
2022/09/20 03:12:35;;;;;;;;;;;;;;;9.86;100.00;99858.66;3056422;19;19922;-57
2022/09/20 03:13:58;;;;;;;;;;;;;;;9.87;100.00;99853.25;3055702;19;19918;-58
2022/09/20 03:15:18;;;;;;;;;;;;;;;9.89;100.00;99855.81;3057442;19;19923;-57
2022/09/20 03:16:29;;;;;;;;;;;;;;;9.87;100.00;99852.38;3057266;19;19925;-57
2022/09/20 03:17:31;;;;;;;;;;;;;;;9.88;100.00;99854.09;3056899;19;19923;-57
2022/09/20 03:18:43;;;;;;;;;;;;;;;9.88;100.00;99857.63;3057345;19;19930;-57
2022/09/20 03:19:47;;;;;;;;;;;;;;;9.88;100.00;99854.94;3056262;19;19922;-57
2022/09/20 03:21:00;;;;;;;;;;;;;;;9.90;100.00;99858.34;3056080;19;20011;-57
2022/09/20 03:22:08;;;;;;;;;;;;;;;9.90;100.00;99858.34;3056089;19;20086;-58
2022/09/20 03:23:16;;;;;;;;;;;;;;;9.89;100.00;99850.47;3056376;19;19991;-58
2022/09/20 03:24:28;;;;;;;;;;;;;;;9.88;100.00;99864.75;3054241;19;19925;-56
2022/09/20 03:25:41;;;;;;;;;;;;;;;9.88;100.00;99865.59;3056034;19;20590;-58
2022/09/20 03:26:45;;;;;;;;;;;;;;;9.86;100.00;99864.84;3056331;19;20550;-57
2022/09/20 03:27:50;;;;;;;;;;;;;;;9.87;100.00;99852.38;3056316;19;19918;-57
2022/09/20 03:28:56;;;;;;;;;;;;;;;9.87;100.00;99863.91;3056229;19;20325;-56
2022/09/20 03:29:58;;;;;;;;;;;;;;;9.87;100.00;99874.56;3056293;19;20087;-57
2022/09/20 03:31:21;;;;;;;;;;;;;;;9.86;100.00;99864.84;3056127;19;20588;-57
2022/09/20 03:32:44;;;;;;;;;;;;;;;9.87;100.00;99868.38;3057108;19;20684;-57
2022/09/20 03:33:57;;;;;;;;;;;;;;;9.86;100.00;99870.19;3057007;19;20337;-57
2022/09/20 03:35:18;;;;;;;;;;;;;;;9.87;100.00;99863.03;3056628;19;19919;-56
2022/09/20 03:36:41;;;;;;;;;;;;;;;9.88;100.00;99872.75;3056662;19;19925;-58
2022/09/20 03:37:59;;;;;;;;;;;;;;;9.88;100.00;99870.09;3056614;19;19919;-58
2022/09/20 03:39:03;;;;;;;;;;;;;;;9.87;100.00;99871.91;3055820;19;19927;-57
2022/09/20 03:40:11;;;;;;;;;;;;;;;9.88;100.00;99875.41;3055182;19;19927;-58
2022/09/20 03:41:19;;;;;;;;;;;;;;;9.88;100.00;99875.41;3056363;19;20244;-59
2022/09/20 03:42:25;;;;;;;;;;;;;;;9.89;100.00;99877.13;3056021;19;19918;-58
2022/09/20 03:43:39;;;;;;;;;;;;;;;9.91;100.00;99875.19;3056131;19;19925;-56
2022/09/20 03:45:00;;;;;;;;;;;;;;;9.93;100.00;99875.94;3056546;19;19993;-57
2022/09/20 03:46:08;;;;;;;;;;;;;;;9.94;100.00;99880.31;3056633;19;19919;-57
2022/09/20 03:47:19;;;;;;;;;;;;;;;9.93;100.00;99875.94;3055724;19;19946;-58
2022/09/20 03:48:31;;;;;;;;;;;;;;;9.94;100.00;99875.84;3055973;19;19992;-58
2022/09/20 03:49:45;;;;;;;;;;;;;;;9.93;100.00;99889.25;3055529;19;19923;-56
2022/09/20 03:50:53;;;;;;;;;;;;;;;9.92;100.00;99882.22;3055524;19;19932;-59
2022/09/20 03:52:01;;;;;;;;;;;;;;;9.93;100.00;99884.78;3055976;19;19942;-58
2022/09/20 03:53:21;;;;;;;;;;;;;;;9.94;100.00;99896.31;3055465;19;19978;-57
2022/09/20 03:54:41;;;;;;;;;;;;;;;9.92;100.00;99888.41;3056626;19;19926;-57
2022/09/20 03:56:05;;;;;;;;;;;;;;;9.91;100.00;99878.69;3056409;19;19978;-58
2022/09/20 03:57:28;;;;;;;;;;;;;;;9.92;100.00;99882.22;3056507;19;19934;-58
2022/09/20 03:58:36;;;;;;;;;;;;;;;9.91;100.00;99885.84;3056721;19;19919;-57
2022/09/20 03:59:48;;;;;;;;;;;;;;;9.91;100.00;99880.50;3055648;19;20599;-57
2022/09/20 04:01:00;;;;;;;;;;;;;;;9.92;100.00;99882.22;3056009;19;20003;-58
2022/09/20 04:02:21;;;;;;;;;;;;;;;9.93;100.00;99889.25;3056400;19;19926;-58
2022/09/20 04:03:34;;;;;;;;;;;;;;;9.92;100.00;99876.88;3056399;19;19994;-58
2022/09/20 04:04:41;;;;;;;;;;;;;;;9.92;100.00;99887.53;3056845;19;19990;-58
2022/09/20 04:05:45;;;;;;;;;;;;;;;9.92;100.00;99887.53;3056112;19;19974;-57
2022/09/20 04:06:58;;;;;;;;;;;;;;;9.92;100.00;99885.75;3056598;19;19919;-56
2022/09/20 04:08:16;;;;;;;;;;;;;;;9.91;100.00;99891.16;3055317;19;19919;-59
2022/09/20 04:09:27;;;;;;;;;;;;;;;9.91;100.00;99885.84;3054910;19;19923;-58
2022/09/20 04:10:31;;;;;;;;;;;;;;;9.87;100.00;99892.34;3055611;19;19923;-58
2022/09/20 04:11:36;;;;;;;;;;;;;;;9.89;100.00;99893.97;3055696;19;20515;-57
2022/09/20 04:12:46;;;;;;;;;;;;;;;9.87;100.00;99895.88;3055493;19;19915;-56
2022/09/20 04:14:03;;;;;;;;;;;;;;;9.89;100.00;99887.78;3055641;19;19940;-58
2022/09/20 04:15:11;;;;;;;;;;;;;;;9.88;100.00;99897.59;3055707;19;20233;-58
2022/09/20 04:16:34;;;;;;;;;;;;;;;9.89;100.00;99901.09;3055515;19;19923;-58
2022/09/20 04:17:36;;;;;;;;;;;;;;;9.87;100.00;99901.22;3055582;19;20708;-57
2022/09/20 04:19:00;;;;;;;;;;;;;;;9.90;100.00;99895.66;3055584;19;19922;-58
2022/09/20 04:20:21;;;;;;;;;;;;;;;9.91;100.00;99901.84;3055358;19;19966;-56
2022/09/20 04:21:40;;;;;;;;;;;;;;;9.94;100.00;99899.81;3055625;19;19915;-58
2022/09/20 04:22:42;;;;;;;;;;;;;;;9.93;100.00;99905.25;3056206;19;19942;-56
2022/09/20 04:23:52;;;;;;;;;;;;;;;9.94;100.00;99912.28;3055731;19;19926;-56
2022/09/20 04:25:15;;;;;;;;;;;;;;;9.94;100.00;99905.16;3055514;19;20012;-57
2022/09/20 04:26:40;;;;;;;;;;;;;;;9.93;100.00;99913.25;3055567;19;20250;-59
2022/09/20 04:27:43;;;;;;;;;;;;;;;9.94;100.00;99901.63;3056473;19;19929;-56
2022/09/20 04:28:49;;;;;;;;;;;;;;;9.94;100.00;99907.81;3055263;19;20015;-57
2022/09/20 04:29:53;;;;;;;;;;;;;;;9.93;100.00;99905.25;3055456;19;19956;-57
2022/09/20 04:30:58;;;;;;;;;;;;;;;9.92;100.00;99899.06;3055599;19;19991;-57
2022/09/20 04:32:00;;;;;;;;;;;;;;;9.95;100.00;99914.00;3055221;19;20181;-58
2022/09/20 04:33:06;;;;;;;;;;;;;;;9.95;100.00;99911.34;3055288;19;19987;-58
2022/09/20 04:37:31;;;;;;;;;;;;;;;9.97;100.00;99912.09;3055323;19;19922;-57
2022/09/20 04:38:34;;;;;;;;;;;;;;;9.99;100.00;99915.50;3056037;19;19919;-57
2022/09/20 04:39:39;;;;;;;;;;;;;;;10.00;100.00;99914.56;3055596;19;19940;-56
2022/09/20 04:40:55;;;;;;;;;;;;;;;10.01;100.00;99922.44;3056027;19;19926;-57
2022/09/20 04:42:06;;;;;;;;;;;;;;;10.03;100.00;99924.97;3056346;19;19915;-57
2022/09/20 04:43:16;;;;;;;;;;;;;;;10.06;100.00;99922.13;3055917;19;20401;-58
2022/09/20 04:44:44;;;;;;;;;;;;;;;10.06;100.00;99922.97;3056139;19;19974;-58
2022/09/20 04:45:51;;;;;;;;;;;;;;;10.09;100.00;99932.56;3054801;19;20053;-57
2022/09/20 04:46:55;;;;;;;;;;;;;;;10.08;100.00;99937.06;3054342;19;19922;-58
2022/09/20 04:48:03;;;;;;;;;;;;;;;10.11;100.00;99933.34;3056060;19;19935;-58
2022/09/20 04:49:40;;;;;;;;;;;;;;;10.12;100.00;99940.38;3056349;19;19938;-58
2022/09/20 04:51:01;;;;;;;;;;;;;;;10.12;100.00;99943.03;3054016;19;19975;-58
2022/09/20 04:52:21;;;;;;;;;;;;;;;10.10;100.00;99942.28;3054252;19;20295;-58
2022/09/20 04:53:31;;;;;;;;;;;;;;;10.10;100.00;99939.63;3055551;19;19923;-58
2022/09/20 04:54:52;;;;;;;;;;;;;;;10.12;100.00;99951.03;3055277;19;19935;-57
2022/09/20 04:56:03;;;;;;;;;;;;;;;10.15;100.00;99947.28;3054981;19;19932;-58
2022/09/20 04:57:08;;;;;;;;;;;;;;;10.16;100.00;99955.19;3056123;19;20266;-57
2022/09/20 04:58:18;;;;;;;;;;;;;;;10.19;100.00;99952.34;3055739;19;20235;-58
2022/09/20 04:59:29;;;;;;;;;;;;;;;10.22;100.00;99949.47;3056045;19;20314;-57
2022/09/20 05:00:42;;;;;;;;;;;;;;;10.25;100.00;99951.94;3055596;19;19979;-58
2022/09/20 05:02:05;;;;;;;;;;;;;;;10.28;100.00;99958.84;3054550;19;19926;-58
2022/09/20 05:03:28;;;;;;;;;;;;;;;10.30;100.00;99960.47;3055455;19;19922;-57
2022/09/20 05:04:39;;;;;;;;;;;;;;;10.28;100.00;99954.38;3055460;19;20374;-58
2022/09/20 05:06:04;;;;;;;;;;;;;;;10.37;100.00;99963.56;3055387;19;19979;-58
2022/09/20 05:07:24;;;;;;;;;;;;;;;10.38;100.00;99971.47;3055936;19;19918;-58
2022/09/20 05:08:47;;;;;;;;;;;;;;;10.42;100.00;99980.09;3054698;19;19923;-57
2022/09/20 05:10:08;;;;;;;;;;;;;;;10.44;100.00;99976.38;3054710;19;19923;-58
2022/09/20 05:11:31;;;;;;;;;;;;;;;10.47;100.00;99983.31;3057058;19;19927;-58
2022/09/20 05:12:53;;;;;;;;;;;;;;;10.51;100.00;99981.25;3056041;19;19934;-58
2022/09/20 05:13:59;;;;;;;;;;;;;;;10.52;100.00;99988.31;3057334;19;19926;-57
2022/09/20 05:15:10;;;;;;;;;;;;;;;10.54;100.00;99994.41;3055180;19;19986;-57
2022/09/20 05:16:20;;;;;;;;;;;;;;;10.55;100.00;99998.78;3054951;19;19918;-58
2022/09/20 05:17:25;;;;;;;;;;;;;;;10.55;100.00;100004.13;3054918;19;20327;-58
2022/09/20 05:18:39;;;;;;;;;;;;;;;10.55;100.00;100004.97;3054255;19;19986;-58
2022/09/20 05:20:10;;;;;;;;;;;;;;;10.59;100.00;100005.63;3054552;19;20286;-58
2022/09/20 05:21:31;;;;;;;;;;;;;;;10.60;100.00;100013.53;3053425;19;19918;-58
2022/09/20 05:22:38;;;;;;;;;;;;;;;10.63;100.00;100012.44;3053336;19;19947;-58
2022/09/20 05:23:54;;;;;;;;;;;;;;;10.61;100.00;100014.38;3054012;19;19931;-58
2022/09/20 05:24:58;;;;;;;;;;;;;;;10.60;100.00;100007.34;3054254;19;20401;-57
2022/09/20 05:26:07;;;;;;;;;;;;;;;10.61;100.00;100015.25;3055274;19;19939;-59
2022/09/20 05:27:32;;;;;;;;;;;;;;;10.61;100.00;100022.38;3054730;19;19926;-58
2022/09/20 05:28:45;;;;;;;;;;;;;;;10.62;100.00;100016.09;3055920;19;19950;-57
2022/09/20 05:29:50;;;;;;;;;;;;;;;10.62;100.00;100026.75;3053659;19;20006;-59
2022/09/20 05:30:53;;;;;;;;;;;;;;;10.62;100.00;100029.44;3053038;19;19927;-60
2022/09/20 05:32:05;;;;;;;;;;;;;;;10.63;100.00;100025.78;3053022;19;19918;-60
2022/09/20 05:33:28;;;;;;;;;;;;;;;10.62;100.00;100034.78;3054043;19;19923;-60
2022/09/20 05:34:32;;;;;;;;;;;;;;;10.66;100.00;100036.25;3053394;19;19984;-62
2022/09/20 05:35:46;;;;;;;;;;;;;;;10.59;100.00;100042.97;3054410;19;19971;-59
2022/09/20 05:37:09;;;;;;;;;;;;;;;10.64;100.00;100035.50;3054564;19;19946;-60
2022/09/20 05:38:15;;;;;;;;;;;;;;;10.67;100.00;100035.28;3053087;19;19926;-60
2022/09/20 05:39:29;;;;;;;;;;;;;;;10.69;100.00;100039.56;3052674;19;19926;-60
2022/09/20 05:40:31;;;;;;;;;;;;;;;10.70;100.00;100035.94;3053341;19;19918;-60
2022/09/20 05:41:51;;;;;;;;;;;;;;;10.71;100.00;100047.47;3054309;19;19922;-60
2022/09/20 05:43:12;;;;;;;;;;;;;;;10.71;100.00;100036.78;3054404;19;19951;-60
2022/09/20 05:44:23;;;;;;;;;;;;;;;10.75;100.00;100033.78;3051102;19;20330;-60
2022/09/20 05:45:39;;;;;;;;;;;;;;;10.80;100.00;100044.16;3052340;19;20380;-59
2022/09/20 05:46:44;;;;;;;;;;;;;;;10.79;100.00;100045.13;3055692;19;20222;-60
2022/09/20 05:47:53;;;;;;;;;;;;;;;10.77;100.00;100052.38;3056780;19;19925;-59
2022/09/20 05:48:56;;;;;;;;;;;;;;;10.77;100.00;100047.03;3057741;19;20476;-60
2022/09/20 05:50:19;;;;;;;;;;;;;;;10.76;100.00;100056.84;3056404;19;19915;-60
2022/09/20 05:51:42;;;;;;;;;;;;;;;10.82;100.00;100055.59;3058762;19;19922;-60
2022/09/20 05:52:59;;;;;;;;;;;;;;;10.85;100.00;100055.38;3058591;19;20394;-59
2022/09/20 05:54:19;;;;;;;;;;;;;;;10.86;100.00;100059.75;3057580;19;19915;-60
2022/09/20 05:55:32;;;;;;;;;;;;;;;10.89;100.00;100056.84;3058106;19;19978;-60
2022/09/20 05:56:36;;;;;;;;;;;;;;;10.86;100.00;100057.09;3057344;19;19971;-59
2022/09/20 05:57:49;;;;;;;;;;;;;;;10.91;100.00;100054.94;3057586;19;20584;-59
2022/09/20 05:58:54;;;;;;;;;;;;;;;10.94;100.00;100070.75;3058046;19;20668;-60
2022/09/20 06:00:06;;;;;;;;;;;;;;;10.94;100.00;100065.41;3057554;19;20053;-59
2022/09/20 06:01:14;;;;;;;;;;;;;;;10.98;100.00;100074.06;3057804;19;20353;-59
2022/09/20 06:02:31;;;;;;;;;;;;;;;11.01;100.00;100077.34;3057482;19;19911;-60
2022/09/20 06:03:39;;;;;;;;;;;;;;;11.03;100.00;100078.09;3057775;19;19986;-60
2022/09/20 06:04:46;;;;;;;;;;;;;;;11.05;100.00;100078.84;3057385;19;20285;-59
2022/09/20 06:06:09;;;;;;;;;;;;;;;11.04;100.00;100071.81;3057313;19;20278;-60
2022/09/20 06:07:16;;;;;;;;;;;;;;;11.04;100.00;100074.47;3057791;19;20287;-61
2022/09/20 06:08:32;;;;;;;;;;;;;;;11.05;100.00;100078.84;3057479;19;19926;-60
2022/09/20 06:09:34;;;;;;;;;;;;;;;11.06;100.00;100082.38;3058398;19;20004;-60
2022/09/20 06:10:39;;;;;;;;;;;;;;;11.08;100.00;100078.66;3057180;19;19923;-60